sensor_id;sensor_type;location;lat;lon;timestamp;temperature;humidity
23783;DHT22;12071;50.850;4.446;2023-12-04T00:01:25;4.10;99.90
23783;DHT22;12071;50.850;4.446;2023-12-04T00:03:52;4.00;1.00
23783;DHT22;12071;50.850;4.446;2023-12-04T00:06:18;4.10;99.90
23783;DHT22;12071;50.850;4.446;2023-12-04T00:08:50;4.10;99.90
23783;DHT22;12071;50.850;4.446;2023-12-04T00:11:16;4.30;99.90
23783;DHT22;12071;50.850;4.446;2023-12-04T00:13:43;4.20;99.90
23783;DHT22;12071;50.850;4.446;2023-12-04T00:16:09;4.10;99.90
23783;DHT22;12071;50.850;4.446;2023-12-04T00:18:38;4.10;1.00
23783;DHT22;12071;50.850;4.446;2023-12-04T00:21:04;4.10;99.90
23783;DHT22;12071;50.850;4.446;2023-12-04T00:23:30;4.00;99.90
23783;DHT22;12071;50.850;4.446;2023-12-04T00:25:56;3.90;99.90
23783;DHT22;12071;50.850;4.446;2023-12-04T00:28:21;4.00;16.20
23783;DHT22;12071;50.850;4.446;2023-12-04T00:30:51;4.00;1.00
23783;DHT22;12071;50.850;4.446;2023-12-04T00:33:17;4.00;99.90
23783;DHT22;12071;50.850;4.446;2023-12-04T00:35:42;3.90;99.90
23783;DHT22;12071;50.850;4.446;2023-12-04T00:38:08;4.00;1.00
23783;DHT22;12071;50.850;4.446;2023-12-04T00:40:35;4.10;99.90
23783;DHT22;12071;50.850;4.446;2023-12-04T00:43:01;4.10;1.00
23783;DHT22;12071;50.850;4.446;2023-12-04T00:45:26;4.10;99.90
23783;DHT22;12071;50.850;4.446;2023-12-04T00:47:52;4.10;99.90
23783;DHT22;12071;50.850;4.446;2023-12-04T00:50:18;4.10;99.90
23783;DHT22;12071;50.850;4.446;2023-12-04T00:52:44;4.00;99.90
23783;DHT22;12071;50.850;4.446;2023-12-04T00:55:12;4.00;99.90
23783;DHT22;12071;50.850;4.446;2023-12-04T00:57:37;4.10;99.90
23783;DHT22;12071;50.850;4.446;2023-12-04T01:00:04;4.10;99.90
23783;DHT22;12071;50.850;4.446;2023-12-04T01:02:32;4.10;99.90
23783;DHT22;12071;50.850;4.446;2023-12-04T01:04:59;4.20;99.90
23783;DHT22;12071;50.850;4.446;2023-12-04T01:07:30;4.20;1.00
23783;DHT22;12071;50.850;4.446;2023-12-04T01:09:56;4.30;99.90
23783;DHT22;12071;50.850;4.446;2023-12-04T01:12:22;4.20;1.00
23783;DHT22;12071;50.850;4.446;2023-12-04T01:14:47;4.30;1.00
23783;DHT22;12071;50.850;4.446;2023-12-04T01:17:13;4.20;99.90
23783;DHT22;12071;50.850;4.446;2023-12-04T01:19:39;4.10;1.00
23783;DHT22;12071;50.850;4.446;2023-12-04T01:22:05;4.10;1.00
23783;DHT22;12071;50.850;4.446;2023-12-04T01:24:31;4.10;1.00
23783;DHT22;12071;50.850;4.446;2023-12-04T01:26:57;4.30;99.90
23783;DHT22;12071;50.850;4.446;2023-12-04T01:29:23;4.20;1.00
23783;DHT22;12071;50.850;4.446;2023-12-04T01:31:50;4.30;99.90
23783;DHT22;12071;50.850;4.446;2023-12-04T01:34:15;4.20;99.90
23783;DHT22;12071;50.850;4.446;2023-12-04T01:36:41;4.10;99.90
23783;DHT22;12071;50.850;4.446;2023-12-04T01:39:07;4.10;99.90
23783;DHT22;12071;50.850;4.446;2023-12-04T01:41:34;4.10;99.90
23783;DHT22;12071;50.850;4.446;2023-12-04T01:44:00;4.20;99.90
23783;DHT22;12071;50.850;4.446;2023-12-04T01:46:26;4.10;99.90
23783;DHT22;12071;50.850;4.446;2023-12-04T01:48:52;4.00;99.90
23783;DHT22;12071;50.850;4.446;2023-12-04T01:51:19;3.90;99.90
23783;DHT22;12071;50.850;4.446;2023-12-04T01:53:46;4.00;99.90
23783;DHT22;12071;50.850;4.446;2023-12-04T01:56:15;4.10;99.90
23783;DHT22;12071;50.850;4.446;2023-12-04T01:58:41;4.10;99.90
23783;DHT22;12071;50.850;4.446;2023-12-04T02:01:07;4.00;99.90
23783;DHT22;12071;50.850;4.446;2023-12-04T02:03:33;4.20;1.00
23783;DHT22;12071;50.850;4.446;2023-12-04T02:06:02;4.20;86.60
23783;DHT22;12071;50.850;4.446;2023-12-04T02:08:30;4.10;99.90
23783;DHT22;12071;50.850;4.446;2023-12-04T02:10:59;4.10;36.10
23783;DHT22;12071;50.850;4.446;2023-12-04T02:13:25;4.20;6.20
23783;DHT22;12071;50.850;4.446;2023-12-04T02:15:53;4.20;1.00
23783;DHT22;12071;50.850;4.446;2023-12-04T02:18:20;4.10;99.90
23783;DHT22;12071;50.850;4.446;2023-12-04T02:20:47;4.10;99.90
23783;DHT22;12071;50.850;4.446;2023-12-04T02:23:13;4.00;99.90
23783;DHT22;12071;50.850;4.446;2023-12-04T02:25:38;4.00;93.00
23783;DHT22;12071;50.850;4.446;2023-12-04T02:28:11;4.00;99.90
23783;DHT22;12071;50.850;4.446;2023-12-04T02:30:42;3.90;99.90
23783;DHT22;12071;50.850;4.446;2023-12-04T02:33:11;3.90;99.90
23783;DHT22;12071;50.850;4.446;2023-12-04T02:35:39;4.00;99.90
23783;DHT22;12071;50.850;4.446;2023-12-04T02:38:07;4.10;17.50
23783;DHT22;12071;50.850;4.446;2023-12-04T02:40:34;4.20;1.00
23783;DHT22;12071;50.850;4.446;2023-12-04T02:43:01;4.10;1.00
23783;DHT22;12071;50.850;4.446;2023-12-04T02:45:29;4.10;1.00
23783;DHT22;12071;50.850;4.446;2023-12-04T02:47:54;4.20;1.00
23783;DHT22;12071;50.850;4.446;2023-12-04T02:50:20;4.20;1.00
23783;DHT22;12071;50.850;4.446;2023-12-04T02:52:47;4.10;1.00
23783;DHT22;12071;50.850;4.446;2023-12-04T02:55:12;4.10;1.00
23783;DHT22;12071;50.850;4.446;2023-12-04T02:57:38;4.20;1.00
23783;DHT22;12071;50.850;4.446;2023-12-04T03:00:04;4.10;1.00
23783;DHT22;12071;50.850;4.446;2023-12-04T03:02:31;4.00;1.00
23783;DHT22;12071;50.850;4.446;2023-12-04T03:04:58;4.20;1.00
23783;DHT22;12071;50.850;4.446;2023-12-04T03:07:24;4.10;1.00
23783;DHT22;12071;50.850;4.446;2023-12-04T03:09:50;4.20;1.00
23783;DHT22;12071;50.850;4.446;2023-12-04T03:12:16;4.30;1.00
23783;DHT22;12071;50.850;4.446;2023-12-04T03:14:43;4.30;1.00
23783;DHT22;12071;50.850;4.446;2023-12-04T03:17:11;4.40;1.00
23783;DHT22;12071;50.850;4.446;2023-12-04T03:19:37;4.30;1.00
23783;DHT22;12071;50.850;4.446;2023-12-04T03:22:02;4.30;1.00
23783;DHT22;12071;50.850;4.446;2023-12-04T03:24:28;4.30;1.00
23783;DHT22;12071;50.850;4.446;2023-12-04T03:26:54;4.20;1.00
23783;DHT22;12071;50.850;4.446;2023-12-04T03:29:20;4.20;1.00
23783;DHT22;12071;50.850;4.446;2023-12-04T03:31:45;4.20;1.00
23783;DHT22;12071;50.850;4.446;2023-12-04T03:34:11;4.20;1.00
23783;DHT22;12071;50.850;4.446;2023-12-04T03:36:37;4.20;1.00
23783;DHT22;12071;50.850;4.446;2023-12-04T03:39:02;4.10;1.00
23783;DHT22;12071;50.850;4.446;2023-12-04T03:41:28;4.10;1.00
23783;DHT22;12071;50.850;4.446;2023-12-04T03:43:54;4.20;1.00
23783;DHT22;12071;50.850;4.446;2023-12-04T03:46:19;4.30;1.00
23783;DHT22;12071;50.850;4.446;2023-12-04T03:48:46;4.30;1.00
23783;DHT22;12071;50.850;4.446;2023-12-04T03:51:11;4.20;1.00
23783;DHT22;12071;50.850;4.446;2023-12-04T03:53:37;4.20;1.00
23783;DHT22;12071;50.850;4.446;2023-12-04T03:56:03;4.20;1.00
23783;DHT22;12071;50.850;4.446;2023-12-04T03:58:29;4.20;1.00
23783;DHT22;12071;50.850;4.446;2023-12-04T04:00:55;4.40;1.00
23783;DHT22;12071;50.850;4.446;2023-12-04T04:03:22;4.40;99.90
23783;DHT22;12071;50.850;4.446;2023-12-04T04:05:47;4.30;1.00
23783;DHT22;12071;50.850;4.446;2023-12-04T04:08:13;4.20;1.00
23783;DHT22;12071;50.850;4.446;2023-12-04T04:10:39;4.10;1.00
23783;DHT22;12071;50.850;4.446;2023-12-04T04:13:05;4.30;1.00
23783;DHT22;12071;50.850;4.446;2023-12-04T04:15:31;4.30;99.90
23783;DHT22;12071;50.850;4.446;2023-12-04T04:17:57;4.20;99.90
23783;DHT22;12071;50.850;4.446;2023-12-04T04:20:23;4.20;99.90
23783;DHT22;12071;50.850;4.446;2023-12-04T04:22:49;4.30;99.90
23783;DHT22;12071;50.850;4.446;2023-12-04T04:25:15;4.30;99.90
23783;DHT22;12071;50.850;4.446;2023-12-04T04:27:41;4.40;99.90
23783;DHT22;12071;50.850;4.446;2023-12-04T04:30:07;4.30;99.90
23783;DHT22;12071;50.850;4.446;2023-12-04T04:32:34;4.30;99.90
23783;DHT22;12071;50.850;4.446;2023-12-04T04:35:04;4.30;99.90
23783;DHT22;12071;50.850;4.446;2023-12-04T04:37:29;4.30;99.90
23783;DHT22;12071;50.850;4.446;2023-12-04T04:39:55;4.20;99.90
23783;DHT22;12071;50.850;4.446;2023-12-04T04:42:22;4.20;99.90
23783;DHT22;12071;50.850;4.446;2023-12-04T04:44:48;4.40;99.90
23783;DHT22;12071;50.850;4.446;2023-12-04T04:47:13;4.30;73.90
23783;DHT22;12071;50.850;4.446;2023-12-04T04:49:39;4.30;99.90
23783;DHT22;12071;50.850;4.446;2023-12-04T04:52:05;4.30;99.90
23783;DHT22;12071;50.850;4.446;2023-12-04T04:54:31;4.30;99.90
23783;DHT22;12071;50.850;4.446;2023-12-04T04:56:58;4.40;27.00
23783;DHT22;12071;50.850;4.446;2023-12-04T04:59:23;4.40;8.20
23783;DHT22;12071;50.850;4.446;2023-12-04T05:01:49;4.60;1.00
23783;DHT22;12071;50.850;4.446;2023-12-04T05:04:15;4.50;1.00
23783;DHT22;12071;50.850;4.446;2023-12-04T05:06:41;4.50;1.00
23783;DHT22;12071;50.850;4.446;2023-12-04T05:09:06;4.40;1.00
23783;DHT22;12071;50.850;4.446;2023-12-04T05:11:32;4.40;1.00
23783;DHT22;12071;50.850;4.446;2023-12-04T05:14:04;4.50;1.00
23783;DHT22;12071;50.850;4.446;2023-12-04T05:16:30;4.60;1.00
23783;DHT22;12071;50.850;4.446;2023-12-04T05:18:55;4.60;1.00
23783;DHT22;12071;50.850;4.446;2023-12-04T05:21:23;4.60;1.00
23783;DHT22;12071;50.850;4.446;2023-12-04T05:23:49;4.70;1.00
23783;DHT22;12071;50.850;4.446;2023-12-04T05:26:15;4.80;1.00
23783;DHT22;12071;50.850;4.446;2023-12-04T05:28:41;4.60;1.00
23783;DHT22;12071;50.850;4.446;2023-12-04T05:31:07;4.50;1.00
23783;DHT22;12071;50.850;4.446;2023-12-04T05:33:35;4.50;1.00
23783;DHT22;12071;50.850;4.446;2023-12-04T05:36:00;4.40;1.00
23783;DHT22;12071;50.850;4.446;2023-12-04T05:38:26;4.60;1.00
23783;DHT22;12071;50.850;4.446;2023-12-04T05:40:52;4.50;99.90
23783;DHT22;12071;50.850;4.446;2023-12-04T05:43:19;4.60;99.90
23783;DHT22;12071;50.850;4.446;2023-12-04T05:45:45;4.60;99.90
23783;DHT22;12071;50.850;4.446;2023-12-04T05:48:11;4.60;99.90
23783;DHT22;12071;50.850;4.446;2023-12-04T05:50:39;4.60;99.90
23783;DHT22;12071;50.850;4.446;2023-12-04T05:53:06;4.70;99.90
23783;DHT22;12071;50.850;4.446;2023-12-04T05:55:34;4.60;99.90
23783;DHT22;12071;50.850;4.446;2023-12-04T05:57:59;4.70;99.90
23783;DHT22;12071;50.850;4.446;2023-12-04T06:00:25;4.80;99.90
23783;DHT22;12071;50.850;4.446;2023-12-04T06:02:51;4.80;99.90
23783;DHT22;12071;50.850;4.446;2023-12-04T06:05:19;4.90;99.90
23783;DHT22;12071;50.850;4.446;2023-12-04T06:07:44;4.90;99.90
23783;DHT22;12071;50.850;4.446;2023-12-04T06:10:16;4.70;99.90
23783;DHT22;12071;50.850;4.446;2023-12-04T06:12:43;4.70;99.90
23783;DHT22;12071;50.850;4.446;2023-12-04T06:15:09;4.80;99.90
23783;DHT22;12071;50.850;4.446;2023-12-04T06:17:35;4.70;99.90
23783;DHT22;12071;50.850;4.446;2023-12-04T06:20:01;4.70;99.90
23783;DHT22;12071;50.850;4.446;2023-12-04T06:22:27;4.60;99.90
23783;DHT22;12071;50.850;4.446;2023-12-04T06:24:54;4.60;99.90
23783;DHT22;12071;50.850;4.446;2023-12-04T06:27:29;4.60;99.90
23783;DHT22;12071;50.850;4.446;2023-12-04T06:29:55;4.60;99.90
23783;DHT22;12071;50.850;4.446;2023-12-04T06:32:20;4.70;99.90
23783;DHT22;12071;50.850;4.446;2023-12-04T06:34:46;4.60;99.90
23783;DHT22;12071;50.850;4.446;2023-12-04T06:37:13;4.70;99.90
23783;DHT22;12071;50.850;4.446;2023-12-04T06:39:39;4.60;99.90
23783;DHT22;12071;50.850;4.446;2023-12-04T06:42:07;4.60;99.90
23783;DHT22;12071;50.850;4.446;2023-12-04T06:44:35;4.60;99.90
23783;DHT22;12071;50.850;4.446;2023-12-04T06:47:01;4.60;99.90
23783;DHT22;12071;50.850;4.446;2023-12-04T06:49:30;4.50;99.90
23783;DHT22;12071;50.850;4.446;2023-12-04T06:51:56;4.50;99.90
23783;DHT22;12071;50.850;4.446;2023-12-04T06:54:22;4.50;99.90
23783;DHT22;12071;50.850;4.446;2023-12-04T06:56:48;4.50;99.90
23783;DHT22;12071;50.850;4.446;2023-12-04T06:59:14;4.50;99.90
23783;DHT22;12071;50.850;4.446;2023-12-04T07:01:41;4.60;99.90
23783;DHT22;12071;50.850;4.446;2023-12-04T07:04:07;4.60;99.90
23783;DHT22;12071;50.850;4.446;2023-12-04T07:06:39;4.50;99.90
23783;DHT22;12071;50.850;4.446;2023-12-04T07:09:06;4.50;99.90
23783;DHT22;12071;50.850;4.446;2023-12-04T07:11:34;4.60;99.90
23783;DHT22;12071;50.850;4.446;2023-12-04T07:14:01;4.60;99.90
23783;DHT22;12071;50.850;4.446;2023-12-04T07:16:27;4.70;99.90
23783;DHT22;12071;50.850;4.446;2023-12-04T07:18:53;4.70;99.90
23783;DHT22;12071;50.850;4.446;2023-12-04T07:21:19;4.80;99.90
23783;DHT22;12071;50.850;4.446;2023-12-04T07:23:45;4.80;99.90
23783;DHT22;12071;50.850;4.446;2023-12-04T07:26:12;4.80;99.90
23783;DHT22;12071;50.850;4.446;2023-12-04T07:28:44;4.70;99.90
23783;DHT22;12071;50.850;4.446;2023-12-04T07:31:11;4.90;99.90
23783;DHT22;12071;50.850;4.446;2023-12-04T07:33:37;4.90;99.90
23783;DHT22;12071;50.850;4.446;2023-12-04T07:36:03;5.00;99.90
23783;DHT22;12071;50.850;4.446;2023-12-04T07:38:29;4.90;99.90
23783;DHT22;12071;50.850;4.446;2023-12-04T07:40:54;4.90;99.90
23783;DHT22;12071;50.850;4.446;2023-12-04T07:43:21;5.00;99.90
23783;DHT22;12071;50.850;4.446;2023-12-04T07:45:46;4.80;99.90
23783;DHT22;12071;50.850;4.446;2023-12-04T07:48:12;4.70;99.90
23783;DHT22;12071;50.850;4.446;2023-12-04T07:50:39;4.80;99.90
23783;DHT22;12071;50.850;4.446;2023-12-04T07:53:08;4.70;99.90
23783;DHT22;12071;50.850;4.446;2023-12-04T07:55:36;4.80;99.90
23783;DHT22;12071;50.850;4.446;2023-12-04T07:58:02;4.80;1.00
23783;DHT22;12071;50.850;4.446;2023-12-04T08:00:27;4.70;1.00
23783;DHT22;12071;50.850;4.446;2023-12-04T08:02:53;4.80;1.00
23783;DHT22;12071;50.850;4.446;2023-12-04T08:05:19;4.80;1.00
23783;DHT22;12071;50.850;4.446;2023-12-04T08:07:44;4.70;1.00
23783;DHT22;12071;50.850;4.446;2023-12-04T08:10:10;4.70;1.00
23783;DHT22;12071;50.850;4.446;2023-12-04T08:12:36;4.80;1.00
23783;DHT22;12071;50.850;4.446;2023-12-04T08:15:03;4.70;1.00
23783;DHT22;12071;50.850;4.446;2023-12-04T08:17:29;4.70;1.00
23783;DHT22;12071;50.850;4.446;2023-12-04T08:19:55;4.70;1.00
23783;DHT22;12071;50.850;4.446;2023-12-04T08:22:21;4.70;1.00
23783;DHT22;12071;50.850;4.446;2023-12-04T08:24:47;4.70;99.90
23783;DHT22;12071;50.850;4.446;2023-12-04T08:27:13;4.80;99.90
23783;DHT22;12071;50.850;4.446;2023-12-04T08:29:41;4.90;99.90
23783;DHT22;12071;50.850;4.446;2023-12-04T08:32:07;4.80;99.90
23783;DHT22;12071;50.850;4.446;2023-12-04T08:34:33;4.80;99.90
23783;DHT22;12071;50.850;4.446;2023-12-04T08:36:58;4.80;99.90
23783;DHT22;12071;50.850;4.446;2023-12-04T08:39:24;4.80;1.00
23783;DHT22;12071;50.850;4.446;2023-12-04T08:41:50;4.70;1.00
23783;DHT22;12071;50.850;4.446;2023-12-04T08:44:15;4.70;27.20
23783;DHT22;12071;50.850;4.446;2023-12-04T08:46:43;4.80;99.90
23783;DHT22;12071;50.850;4.446;2023-12-04T08:49:09;4.80;99.90
23783;DHT22;12071;50.850;4.446;2023-12-04T08:51:34;4.80;99.90
23783;DHT22;12071;50.850;4.446;2023-12-04T08:54:00;4.80;1.00
23783;DHT22;12071;50.850;4.446;2023-12-04T08:56:25;4.90;99.90
23783;DHT22;12071;50.850;4.446;2023-12-04T08:58:51;4.90;1.00
23783;DHT22;12071;50.850;4.446;2023-12-04T09:01:17;4.80;99.90
23783;DHT22;12071;50.850;4.446;2023-12-04T09:03:43;4.80;1.00
23783;DHT22;12071;50.850;4.446;2023-12-04T09:06:09;4.80;51.90
23783;DHT22;12071;50.850;4.446;2023-12-04T09:08:35;4.80;1.00
23783;DHT22;12071;50.850;4.446;2023-12-04T09:11:01;4.70;9.20
23783;DHT22;12071;50.850;4.446;2023-12-04T09:13:29;4.70;99.90
23783;DHT22;12071;50.850;4.446;2023-12-04T09:15:56;4.80;1.00
23783;DHT22;12071;50.850;4.446;2023-12-04T09:18:22;5.00;1.00
23783;DHT22;12071;50.850;4.446;2023-12-04T09:20:47;4.90;99.90
23783;DHT22;12071;50.850;4.446;2023-12-04T09:23:13;4.90;99.90
23783;DHT22;12071;50.850;4.446;2023-12-04T09:25:39;4.70;99.90
23783;DHT22;12071;50.850;4.446;2023-12-04T09:28:04;4.80;1.00
23783;DHT22;12071;50.850;4.446;2023-12-04T09:30:30;4.80;1.00
23783;DHT22;12071;50.850;4.446;2023-12-04T09:32:56;4.90;99.90
23783;DHT22;12071;50.850;4.446;2023-12-04T09:35:22;5.00;99.90
23783;DHT22;12071;50.850;4.446;2023-12-04T09:37:48;5.00;1.00
23783;DHT22;12071;50.850;4.446;2023-12-04T09:40:17;5.00;1.00
23783;DHT22;12071;50.850;4.446;2023-12-04T09:42:42;4.90;99.90
23783;DHT22;12071;50.850;4.446;2023-12-04T09:45:09;4.90;1.00
23783;DHT22;12071;50.850;4.446;2023-12-04T09:47:35;4.80;1.00
23783;DHT22;12071;50.850;4.446;2023-12-04T09:50:02;4.90;49.90
23783;DHT22;12071;50.850;4.446;2023-12-04T09:52:31;5.00;99.90
23783;DHT22;12071;50.850;4.446;2023-12-04T09:55:05;5.00;99.90
23783;DHT22;12071;50.850;4.446;2023-12-04T09:57:31;5.00;99.90
23783;DHT22;12071;50.850;4.446;2023-12-04T10:00:00;4.80;57.40
23783;DHT22;12071;50.850;4.446;2023-12-04T10:02:32;4.70;99.90
23783;DHT22;12071;50.850;4.446;2023-12-04T10:05:08;4.60;1.00
23783;DHT22;12071;50.850;4.446;2023-12-04T10:07:34;4.50;1.00
23783;DHT22;12071;50.850;4.446;2023-12-04T10:10:02;4.50;52.40
23783;DHT22;12071;50.850;4.446;2023-12-04T10:12:32;4.40;99.90
23783;DHT22;12071;50.850;4.446;2023-12-04T10:15:06;4.30;99.90
23783;DHT22;12071;50.850;4.446;2023-12-04T10:17:41;4.50;99.90
23783;DHT22;12071;50.850;4.446;2023-12-04T10:20:14;4.60;99.90
23783;DHT22;12071;50.850;4.446;2023-12-04T10:23:01;4.60;99.90
23783;DHT22;12071;50.850;4.446;2023-12-04T10:25:30;4.60;99.90
23783;DHT22;12071;50.850;4.446;2023-12-04T10:28:16;4.60;99.90
23783;DHT22;12071;50.850;4.446;2023-12-04T10:30:43;4.60;99.90
23783;DHT22;12071;50.850;4.446;2023-12-04T10:33:09;4.50;99.90
23783;DHT22;12071;50.850;4.446;2023-12-04T10:35:36;4.40;99.90
23783;DHT22;12071;50.850;4.446;2023-12-04T10:38:03;4.40;99.90
23783;DHT22;12071;50.850;4.446;2023-12-04T10:40:31;4.40;99.90
23783;DHT22;12071;50.850;4.446;2023-12-04T10:43:12;4.40;99.90
23783;DHT22;12071;50.850;4.446;2023-12-04T10:45:41;4.50;99.90
23783;DHT22;12071;50.850;4.446;2023-12-04T10:48:08;4.50;99.90
23783;DHT22;12071;50.850;4.446;2023-12-04T10:50:35;4.60;99.90
23783;DHT22;12071;50.850;4.446;2023-12-04T10:53:10;4.60;99.90
23783;DHT22;12071;50.850;4.446;2023-12-04T10:55:36;4.70;99.90
23783;DHT22;12071;50.850;4.446;2023-12-04T10:58:07;4.70;99.90
23783;DHT22;12071;50.850;4.446;2023-12-04T11:00:34;4.60;99.90
23783;DHT22;12071;50.850;4.446;2023-12-04T11:03:11;4.60;99.90
23783;DHT22;12071;50.850;4.446;2023-12-04T11:05:40;4.70;99.90
23783;DHT22;12071;50.850;4.446;2023-12-04T11:08:11;4.90;99.90
23783;DHT22;12071;50.850;4.446;2023-12-04T11:11:04;5.00;99.90
23783;DHT22;12071;50.850;4.446;2023-12-04T11:13:41;5.20;99.90
23783;DHT22;12071;50.850;4.446;2023-12-04T11:16:31;5.40;99.90
23783;DHT22;12071;50.850;4.446;2023-12-04T11:21:59;5.70;99.90
23783;DHT22;12071;50.850;4.446;2023-12-04T11:24:25;5.70;99.90
23783;DHT22;12071;50.850;4.446;2023-12-04T11:26:52;5.60;99.90
23783;DHT22;12071;50.850;4.446;2023-12-04T11:29:19;5.50;99.90
23783;DHT22;12071;50.850;4.446;2023-12-04T11:31:47;5.50;99.90
23783;DHT22;12071;50.850;4.446;2023-12-04T11:34:13;5.40;99.90
23783;DHT22;12071;50.850;4.446;2023-12-04T11:36:41;5.20;99.90
23783;DHT22;12071;50.850;4.446;2023-12-04T11:39:11;5.30;99.90
23783;DHT22;12071;50.850;4.446;2023-12-04T11:41:37;5.20;99.90
23783;DHT22;12071;50.850;4.446;2023-12-04T11:44:03;5.20;99.90
23783;DHT22;12071;50.850;4.446;2023-12-04T11:46:29;5.10;99.90
23783;DHT22;12071;50.850;4.446;2023-12-04T11:51:50;5.20;99.90
23783;DHT22;12071;50.850;4.446;2023-12-04T11:54:22;5.20;99.90
23783;DHT22;12071;50.850;4.446;2023-12-04T11:59:37;5.30;99.90
23783;DHT22;12071;50.850;4.446;2023-12-04T12:02:10;5.30;99.90
23783;DHT22;12071;50.850;4.446;2023-12-04T12:04:38;5.30;99.90
23783;DHT22;12071;50.850;4.446;2023-12-04T12:07:05;5.20;99.90
23783;DHT22;12071;50.850;4.446;2023-12-04T12:09:32;5.20;99.90
23783;DHT22;12071;50.850;4.446;2023-12-04T12:12:02;5.30;99.90
23783;DHT22;12071;50.850;4.446;2023-12-04T12:14:28;5.50;99.90
23783;DHT22;12071;50.850;4.446;2023-12-04T12:16:55;5.40;99.90
23783;DHT22;12071;50.850;4.446;2023-12-04T12:19:27;5.50;99.90
23783;DHT22;12071;50.850;4.446;2023-12-04T12:21:53;5.30;99.90
23783;DHT22;12071;50.850;4.446;2023-12-04T12:24:19;5.40;99.90
23783;DHT22;12071;50.850;4.446;2023-12-04T12:26:45;5.50;99.90
23783;DHT22;12071;50.850;4.446;2023-12-04T12:29:11;5.50;99.90
23783;DHT22;12071;50.850;4.446;2023-12-04T12:31:37;5.50;99.90
23783;DHT22;12071;50.850;4.446;2023-12-04T12:34:03;5.50;99.90
23783;DHT22;12071;50.850;4.446;2023-12-04T12:36:31;5.50;99.90
23783;DHT22;12071;50.850;4.446;2023-12-04T12:39:01;5.50;99.90
23783;DHT22;12071;50.850;4.446;2023-12-04T12:41:30;5.50;99.90
23783;DHT22;12071;50.850;4.446;2023-12-04T12:43:56;5.60;99.90
23783;DHT22;12071;50.850;4.446;2023-12-04T12:46:22;5.60;99.90
23783;DHT22;12071;50.850;4.446;2023-12-04T12:48:48;5.60;99.90
23783;DHT22;12071;50.850;4.446;2023-12-04T12:51:13;5.60;99.90
23783;DHT22;12071;50.850;4.446;2023-12-04T12:53:40;5.70;99.90
23783;DHT22;12071;50.850;4.446;2023-12-04T12:56:06;5.70;99.90
23783;DHT22;12071;50.850;4.446;2023-12-04T12:58:33;5.90;99.90
23783;DHT22;12071;50.850;4.446;2023-12-04T13:01:00;5.80;99.90
23783;DHT22;12071;50.850;4.446;2023-12-04T13:03:27;5.80;99.90
23783;DHT22;12071;50.850;4.446;2023-12-04T13:05:53;6.00;99.90
23783;DHT22;12071;50.850;4.446;2023-12-04T13:08:19;5.90;99.90
23783;DHT22;12071;50.850;4.446;2023-12-04T13:10:44;5.90;99.90
23783;DHT22;12071;50.850;4.446;2023-12-04T13:13:14;5.70;99.90
23783;DHT22;12071;50.850;4.446;2023-12-04T13:15:40;5.60;99.90
23783;DHT22;12071;50.850;4.446;2023-12-04T13:18:07;5.40;99.90
23783;DHT22;12071;50.850;4.446;2023-12-04T13:20:33;5.30;99.90
23783;DHT22;12071;50.850;4.446;2023-12-04T13:23:00;5.50;99.90
23783;DHT22;12071;50.850;4.446;2023-12-04T13:25:26;5.60;99.90
23783;DHT22;12071;50.850;4.446;2023-12-04T13:27:52;5.70;99.90
23783;DHT22;12071;50.850;4.446;2023-12-04T13:30:18;5.60;99.90
23783;DHT22;12071;50.850;4.446;2023-12-04T13:32:45;5.70;99.90
23783;DHT22;12071;50.850;4.446;2023-12-04T13:35:11;5.80;99.90
23783;DHT22;12071;50.850;4.446;2023-12-04T13:37:37;5.70;99.90
23783;DHT22;12071;50.850;4.446;2023-12-04T13:40:05;5.70;99.90
23783;DHT22;12071;50.850;4.446;2023-12-04T13:42:38;5.90;99.90
23783;DHT22;12071;50.850;4.446;2023-12-04T13:45:22;6.00;99.90
23783;DHT22;12071;50.850;4.446;2023-12-04T13:47:48;5.80;99.90
23783;DHT22;12071;50.850;4.446;2023-12-04T13:50:16;5.90;1.00
23783;DHT22;12071;50.850;4.446;2023-12-04T13:52:45;5.90;1.00
23783;DHT22;12071;50.850;4.446;2023-12-04T13:55:22;6.00;99.90
23783;DHT22;12071;50.850;4.446;2023-12-04T13:58:03;6.00;99.90
23783;DHT22;12071;50.850;4.446;2023-12-04T14:00:29;6.00;99.90
23783;DHT22;12071;50.850;4.446;2023-12-04T14:02:56;6.00;1.00
23783;DHT22;12071;50.850;4.446;2023-12-04T14:05:31;5.90;1.00
23783;DHT22;12071;50.850;4.446;2023-12-04T14:07:57;6.00;1.00
23783;DHT22;12071;50.850;4.446;2023-12-04T14:10:25;6.00;1.00
23783;DHT22;12071;50.850;4.446;2023-12-04T14:12:52;6.00;1.00
23783;DHT22;12071;50.850;4.446;2023-12-04T14:15:17;6.00;1.00
23783;DHT22;12071;50.850;4.446;2023-12-04T14:17:43;5.80;1.00
23783;DHT22;12071;50.850;4.446;2023-12-04T14:20:10;5.90;1.00
23783;DHT22;12071;50.850;4.446;2023-12-04T14:22:42;5.90;1.00
23783;DHT22;12071;50.850;4.446;2023-12-04T14:25:09;5.80;1.00
23783;DHT22;12071;50.850;4.446;2023-12-04T14:27:36;5.80;1.00
23783;DHT22;12071;50.850;4.446;2023-12-04T14:30:09;5.80;1.00
23783;DHT22;12071;50.850;4.446;2023-12-04T14:32:35;5.90;1.00
23783;DHT22;12071;50.850;4.446;2023-12-04T14:35:03;5.80;1.00
23783;DHT22;12071;50.850;4.446;2023-12-04T14:37:29;5.80;1.00
23783;DHT22;12071;50.850;4.446;2023-12-04T14:39:55;5.90;1.00
23783;DHT22;12071;50.850;4.446;2023-12-04T14:42:21;5.80;1.00
23783;DHT22;12071;50.850;4.446;2023-12-04T14:44:47;5.60;1.00
23783;DHT22;12071;50.850;4.446;2023-12-04T14:47:12;5.80;1.00
23783;DHT22;12071;50.850;4.446;2023-12-04T14:49:38;5.80;1.00
23783;DHT22;12071;50.850;4.446;2023-12-04T14:52:04;6.00;1.00
23783;DHT22;12071;50.850;4.446;2023-12-04T14:54:32;6.00;1.00
23783;DHT22;12071;50.850;4.446;2023-12-04T14:57:19;6.10;1.00
23783;DHT22;12071;50.850;4.446;2023-12-04T14:59:45;6.20;1.00
23783;DHT22;12071;50.850;4.446;2023-12-04T15:02:30;6.10;1.00
23783;DHT22;12071;50.850;4.446;2023-12-04T15:05:14;6.10;1.00
23783;DHT22;12071;50.850;4.446;2023-12-04T15:08:09;6.00;1.00
23783;DHT22;12071;50.850;4.446;2023-12-04T15:10:50;5.90;1.00
23783;DHT22;12071;50.850;4.446;2023-12-04T15:13:25;6.20;1.00
23783;DHT22;12071;50.850;4.446;2023-12-04T15:15:50;6.30;1.00
23783;DHT22;12071;50.850;4.446;2023-12-04T15:18:35;6.20;1.00
23783;DHT22;12071;50.850;4.446;2023-12-04T15:21:24;6.40;1.00
23783;DHT22;12071;50.850;4.446;2023-12-04T15:23:50;6.40;1.00
23783;DHT22;12071;50.850;4.446;2023-12-04T15:26:16;6.30;1.00
23783;DHT22;12071;50.850;4.446;2023-12-04T15:28:43;6.10;1.00
23783;DHT22;12071;50.850;4.446;2023-12-04T15:31:09;6.20;1.00
23783;DHT22;12071;50.850;4.446;2023-12-04T15:33:35;6.10;1.00
23783;DHT22;12071;50.850;4.446;2023-12-04T15:36:01;6.00;1.00
23783;DHT22;12071;50.850;4.446;2023-12-04T15:38:27;5.90;1.00
23783;DHT22;12071;50.850;4.446;2023-12-04T15:40:55;6.00;1.00
23783;DHT22;12071;50.850;4.446;2023-12-04T15:43:22;6.10;1.00
23783;DHT22;12071;50.850;4.446;2023-12-04T15:45:47;6.10;1.00
23783;DHT22;12071;50.850;4.446;2023-12-04T15:48:13;6.30;1.00
23783;DHT22;12071;50.850;4.446;2023-12-04T15:50:39;6.20;1.00
23783;DHT22;12071;50.850;4.446;2023-12-04T15:53:05;6.30;1.00
23783;DHT22;12071;50.850;4.446;2023-12-04T15:55:30;6.10;1.00
23783;DHT22;12071;50.850;4.446;2023-12-04T15:57:56;6.30;1.00
23783;DHT22;12071;50.850;4.446;2023-12-04T16:00:23;6.30;1.00
23783;DHT22;12071;50.850;4.446;2023-12-04T16:02:50;6.10;1.00